Time;durP1;ratioP1;P1;durP2;ratioP2;P2;SDS_P1;SDS_P2;PMS_P1;PMS_P2;Temp;Humidity;BMP_temperature;BMP_pressure;BME280_temperature;BME280_humidity;BME280_pressure;Samples;Min_cycle;Max_cycle;Signal;HPM_P1;HPM_P2
2021/07/06 00:01:54;;;;;;;4.28;3.88;;;24.30;80.70;;;;;;5101744;28;20027;-91
2021/07/06 00:04:19;;;;;;;5.00;4.50;;;24.20;80.60;;;;;;5099690;28;20055;-90
2021/07/06 00:06:45;;;;;;;6.68;4.63;;;24.20;80.80;;;;;;5097933;28;20023;-90
2021/07/06 00:09:11;;;;;;;5.43;4.40;;;24.20;81.10;;;;;;5096641;28;20110;-90
2021/07/06 00:11:37;;;;;;;4.57;4.18;;;24.20;81.30;;;;;;5096381;28;20470;-91
2021/07/06 00:14:03;;;;;;;5.22;4.72;;;24.20;81.20;;;;;;5096309;28;20035;-90
2021/07/06 00:16:28;;;;;;;4.80;4.40;;;24.20;81.70;;;;;;5096841;28;20023;-90
2021/07/06 00:18:54;;;;;;;7.22;5.45;;;24.10;81.60;;;;;;5100259;28;20454;-91
2021/07/06 00:21:20;;;;;;;5.38;4.88;;;24.10;81.90;;;;;;5100817;28;20089;-91
2021/07/06 00:23:45;;;;;;;4.88;4.47;;;24.00;82.20;;;;;;5100941;28;20069;-90
2021/07/06 00:26:11;;;;;;;5.95;5.35;;;23.90;82.50;;;;;;5099710;28;20028;-90
2021/07/06 00:28:37;;;;;;;5.90;5.30;;;23.80;82.60;;;;;;5099965;28;20019;-90
2021/07/06 00:31:03;;;;;;;4.97;4.45;;;23.90;82.90;;;;;;5099470;28;20051;-91
2021/07/06 00:33:30;;;;;;;5.32;4.82;;;23.90;82.90;;;;;;5099408;28;20066;-90
2021/07/06 00:36:01;;;;;;;6.68;5.50;;;23.80;83.20;;;;;;5099834;28;20134;-90
2021/07/06 00:38:27;;;;;;;5.60;5.10;;;23.70;83.50;;;;;;5099376;28;20031;-89
2021/07/06 00:40:55;;;;;;;5.65;5.10;;;23.70;83.70;;;;;;5100387;28;20472;-90
2021/07/06 00:43:21;;;;;;;7.72;5.13;;;23.70;84.10;;;;;;5100601;28;20059;-90
2021/07/06 00:45:48;;;;;;;5.40;4.90;;;23.60;84.30;;;;;;5099928;28;20055;-90
2021/07/06 00:48:14;;;;;;;4.78;4.38;;;23.60;84.60;;;;;;5099856;28;20023;-90
2021/07/06 00:50:40;;;;;;;5.60;5.07;;;23.70;84.50;;;;;;5099296;28;20077;-90
2021/07/06 00:53:05;;;;;;;6.88;4.90;;;23.80;84.30;;;;;;5099187;28;20032;-90
2021/07/06 00:55:31;;;;;;;5.70;5.15;;;23.80;84.10;;;;;;5117384;28;20024;-90
2021/07/06 00:57:57;;;;;;;5.30;4.80;;;23.90;84.50;;;;;;5099359;28;20028;-90
2021/07/06 01:00:25;;;;;;;5.80;5.20;;;23.80;83.80;;;;;;5099305;28;20035;-90
2021/07/06 01:02:52;;;;;;;5.32;4.82;;;23.80;84.00;;;;;;5099673;28;20032;-90
2021/07/06 01:05:19;;;;;;;4.38;3.95;;;23.70;84.10;;;;;;5117336;28;20059;-90
2021/07/06 01:07:46;;;;;;;5.90;4.40;;;23.70;84.30;;;;;;5117321;28;20102;-90
2021/07/06 01:10:13;;;;;;;5.10;4.60;;;23.80;84.50;;;;;;5099492;28;20027;-90
2021/07/06 01:12:39;;;;;;;7.03;4.95;;;23.80;84.30;;;;;;5099793;28;20032;-90
2021/07/06 01:15:08;;;;;;;5.60;5.00;;;23.90;84.30;;;;;;5099352;28;20386;-90
2021/07/06 01:17:34;;;;;;;5.93;5.30;;;24.00;84.10;;;;;;5098649;28;20024;-89
2021/07/06 01:20:09;;;;;;;5.72;5.13;;;24.10;83.60;;;;;;5099732;28;20076;-91
2021/07/06 01:22:35;;;;;;;5.30;4.80;;;24.00;83.40;;;;;;5098858;28;20576;-90
2021/07/06 01:25:03;;;;;;;5.93;5.32;;;24.00;83.40;;;;;;5098909;28;20027;-90
2021/07/06 01:27:29;;;;;;;4.95;4.55;;;24.00;83.40;;;;;;5116718;28;20023;-90
2021/07/06 01:29:55;;;;;;;5.25;4.20;;;24.00;83.30;;;;;;5116509;28;20461;-90
2021/07/06 01:32:21;;;;;;;4.68;4.25;;;24.10;83.30;;;;;;5098892;28;20443;-90
2021/07/06 01:34:47;;;;;;;5.55;4.53;;;24.10;83.10;;;;;;5098718;28;20047;-91
2021/07/06 01:37:17;;;;;;;4.90;4.40;;;24.20;82.90;;;;;;5099171;28;20111;-90
2021/07/06 01:39:45;;;;;;;5.20;4.72;;;24.20;82.90;;;;;;5098829;28;20417;-90
2021/07/06 01:42:11;;;;;;;5.22;4.72;;;24.30;82.80;;;;;;5117188;28;20020;-89
2021/07/06 01:44:36;;;;;;;5.32;4.82;;;24.40;82.50;;;;;;5116987;28;20040;-91
2021/07/06 01:47:02;;;;;;;4.60;4.20;;;24.40;82.00;;;;;;5099443;28;20114;-90
2021/07/06 01:49:28;;;;;;;5.25;4.75;;;24.40;82.50;;;;;;5100027;28;20406;-90
2021/07/06 01:51:54;;;;;;;5.22;4.72;;;24.50;81.90;;;;;;5101781;28;20039;-91
2021/07/06 01:54:19;;;;;;;5.10;4.60;;;24.50;81.90;;;;;;5102294;28;20031;-91
2021/07/06 01:56:47;;;;;;;5.10;4.53;;;24.50;81.70;;;;;;5107012;28;20066;-90
2021/07/06 01:59:14;;;;;;;4.82;4.32;;;24.60;81.60;;;;;;5109572;28;20027;-90
2021/07/06 02:01:42;;;;;;;5.40;4.90;;;24.60;81.40;;;;;;5099689;28;20465;-90
2021/07/06 02:04:08;;;;;;;5.70;4.68;;;24.70;81.20;;;;;;5099220;28;20096;-90
2021/07/06 02:06:34;;;;;;;5.28;4.78;;;24.70;80.70;;;;;;5098860;28;20027;-90
2021/07/06 02:09:00;;;;;;;5.30;4.80;;;24.70;80.50;;;;;;5098148;28;20030;-90
2021/07/06 02:11:26;;;;;;;4.95;4.45;;;24.80;80.50;;;;;;5098329;28;20028;-91
2021/07/06 02:13:54;;;;;;;7.10;5.10;;;24.80;80.40;;;;;;5098028;28;20031;-90
2021/07/06 02:16:21;;;;;;;4.75;4.25;;;24.80;80.30;;;;;;5097776;28;20026;-90
2021/07/06 02:18:47;;;;;;;5.25;4.72;;;24.80;80.30;;;;;;5097933;28;20203;-90
2021/07/06 02:21:13;;;;;;;5.35;4.85;;;24.70;80.20;;;;;;5098262;28;20027;-90
2021/07/06 02:23:39;;;;;;;4.57;4.18;;;24.70;80.30;;;;;;5097906;28;20051;-91
2021/07/06 02:26:08;;;;;;;5.00;4.50;;;24.60;80.50;;;;;;5097676;28;20119;-90
2021/07/06 02:28:35;;;;;;;5.15;4.65;;;24.60;80.70;;;;;;5098017;28;20027;-91
2021/07/06 02:31:02;;;;;;;5.80;4.93;;;24.70;80.60;;;;;;5097764;28;20085;-90
2021/07/06 02:33:32;;;;;;;4.68;4.22;;;24.70;80.50;;;;;;5097562;28;20039;-90
2021/07/06 02:36:00;;;;;;;4.75;4.35;;;24.80;80.40;;;;;;5116648;28;20464;-90
2021/07/06 02:38:26;;;;;;;5.35;4.85;;;24.80;80.30;;;;;;5098090;28;20118;-90
2021/07/06 02:40:51;;;;;;;5.35;4.10;;;24.80;80.30;;;;;;5097324;28;20078;-91
2021/07/06 02:43:17;;;;;;;5.72;4.90;;;24.90;80.20;;;;;;5097611;28;20031;-91
2021/07/06 02:45:45;;;;;;;5.15;4.53;;;24.90;80.00;;;;;;5097776;28;20100;-91
2021/07/06 02:48:11;;;;;;;5.85;5.15;;;24.90;79.70;;;;;;5098498;28;20047;-91
2021/07/06 02:50:39;;;;;;;5.20;4.70;;;24.70;79.90;;;;;;5097590;28;20031;-90
2021/07/06 02:53:05;;;;;;;6.18;5.57;;;24.70;80.20;;;;;;5100811;28;20034;-90
2021/07/06 02:55:31;;;;;;;5.18;4.68;;;24.50;80.50;;;;;;5117432;28;20015;-90
2021/07/06 02:57:57;;;;;;;5.95;5.35;;;24.50;80.90;;;;;;5108132;28;20045;-91
2021/07/06 03:00:26;;;;;;;4.82;4.32;;;24.30;81.20;;;;;;5107196;28;20028;-91
2021/07/06 03:02:53;;;;;;;7.68;5.78;;;24.20;81.70;;;;;;5107612;28;20032;-90
2021/07/06 03:05:21;;;;;;;5.38;4.82;;;24.10;82.00;;;;;;5107333;28;20054;-90
2021/07/06 03:07:48;;;;;;;5.15;4.53;;;24.10;82.50;;;;;;5108811;28;20020;-91
2021/07/06 03:10:16;;;;;;;4.97;4.45;;;24.20;82.50;;;;;;5125182;28;20054;-90
2021/07/06 03:12:42;;;;;;;5.57;5.05;;;24.30;82.30;;;;;;5106886;28;20031;-91
2021/07/06 03:15:14;;;;;;;4.82;4.30;;;24.50;81.90;;;;;;5124022;28;20458;-90
2021/07/06 03:17:40;;;;;;;7.80;5.40;;;24.50;81.30;;;;;;5105497;28;20076;-90
2021/07/06 03:20:08;;;;;;;6.15;5.55;;;24.50;81.50;;;;;;5105193;28;20028;-90
2021/07/06 03:22:34;;;;;;;5.60;5.10;;;24.60;81.30;;;;;;5102596;28;20032;-91
2021/07/06 03:25:00;;;;;;;4.80;4.40;;;24.50;81.30;;;;;;5099090;28;20034;-90
2021/07/06 03:27:26;;;;;;;5.28;4.78;;;24.40;81.50;;;;;;5115030;28;20062;-91
2021/07/06 03:29:52;;;;;;;5.15;4.63;;;24.40;81.70;;;;;;5114996;28;20103;-90
2021/07/06 03:32:18;;;;;;;6.75;5.40;;;24.30;81.90;;;;;;5097276;28;20028;-91
2021/07/06 03:34:44;;;;;;;6.20;5.50;;;24.20;81.90;;;;;;5096783;28;20044;-91
2021/07/06 03:37:10;;;;;;;5.88;5.28;;;24.20;82.40;;;;;;5097461;28;20123;-90
2021/07/06 03:39:37;;;;;;;5.60;5.00;;;24.20;82.60;;;;;;5096909;28;20034;-90
2021/07/06 03:42:05;;;;;;;6.47;5.70;;;24.20;82.70;;;;;;5096996;28;20077;-90
2021/07/06 03:44:30;;;;;;;6.82;5.10;;;24.30;82.70;;;;;;5097010;28;20027;-90
2021/07/06 03:46:57;;;;;;;5.35;4.85;;;24.30;82.30;;;;;;5097452;28;20366;-91
2021/07/06 03:49:22;;;;;;;6.28;5.68;;;24.40;82.40;;;;;;5098555;28;20023;-91
2021/07/06 03:51:48;;;;;;;5.38;4.88;;;24.30;82.30;;;;;;5100238;28;20019;-90
2021/07/06 03:54:14;;;;;;;6.18;5.55;;;24.20;82.60;;;;;;5103587;28;20032;-90
2021/07/06 03:56:40;;;;;;;5.45;4.95;;;24.20;82.90;;;;;;5103220;28;20028;-90
2021/07/06 03:59:06;;;;;;;6.28;5.68;;;24.20;82.90;;;;;;5101528;28;20458;-90
2021/07/06 04:01:33;;;;;;;6.50;5.80;;;24.30;83.00;;;;;;5118265;28;20024;-90
2021/07/06 04:03:59;;;;;;;6.20;5.45;;;24.30;82.70;;;;;;5100148;28;20051;-90
2021/07/06 04:06:24;;;;;;;5.55;5.05;;;24.30;82.80;;;;;;5100784;28;20247;-90
2021/07/06 04:08:50;;;;;;;6.25;5.32;;;24.30;82.60;;;;;;5100473;28;20024;-90
2021/07/06 04:11:16;;;;;;;6.22;5.60;;;24.30;82.80;;;;;;5100413;28;20462;-91
2021/07/06 04:13:41;;;;;;;6.68;6.07;;;24.30;82.90;;;;;;5100232;28;20039;-91
2021/07/06 04:16:07;;;;;;;5.85;5.35;;;24.30;83.20;;;;;;5101431;28;20020;-91
2021/07/06 04:18:33;;;;;;;5.80;5.25;;;24.30;83.10;;;;;;5100625;28;20442;-91
2021/07/06 04:20:59;;;;;;;7.03;6.28;;;24.40;82.80;;;;;;5100934;28;20050;-90
2021/07/06 04:23:24;;;;;;;6.47;5.72;;;24.50;82.50;;;;;;5100335;28;20118;-90
2021/07/06 04:25:50;;;;;;;6.47;5.75;;;24.40;82.60;;;;;;5099824;28;20081;-91
2021/07/06 04:28:16;;;;;;;7.00;6.30;;;24.50;82.70;;;;;;5099605;28;20023;-91
2021/07/06 04:30:42;;;;;;;8.05;5.88;;;24.50;82.70;;;;;;5118202;28;20143;-90
2021/07/06 04:33:09;;;;;;;8.07;6.00;;;24.70;82.40;;;;;;5100328;28;20036;-90
2021/07/06 04:35:35;;;;;;;6.95;6.25;;;24.70;82.00;;;;;;5099752;28;20504;-90
2021/07/06 04:38:00;;;;;;;7.68;6.65;;;24.80;81.50;;;;;;5099608;28;20020;-90
2021/07/06 04:40:26;;;;;;;6.00;5.40;;;24.70;81.50;;;;;;5099730;28;20038;-90
2021/07/06 04:42:55;;;;;;;6.05;5.45;;;24.60;81.80;;;;;;5099768;28;20019;-92
2021/07/06 04:45:21;;;;;;;8.45;6.30;;;24.60;82.20;;;;;;5099707;28;20031;-90
2021/07/06 04:47:47;;;;;;;6.60;5.60;;;24.60;82.10;;;;;;5099653;28;20032;-89
2021/07/06 04:50:14;;;;;;;5.97;5.38;;;24.60;82.30;;;;;;5099846;28;20114;-89
2021/07/06 04:52:43;;;;;;;5.85;5.22;;;24.80;82.20;;;;;;5098751;28;20024;-89
2021/07/06 04:55:10;;;;;;;6.88;6.18;;;25.00;81.80;;;;;;5117845;28;20034;-90
2021/07/06 04:57:35;;;;;;;8.35;6.43;;;25.10;81.10;;;;;;5116901;28;20027;-90
2021/07/06 05:00:02;;;;;;;7.20;6.50;;;25.20;80.70;;;;;;5099194;28;20037;-88
2021/07/06 05:02:28;;;;;;;8.10;7.30;;;25.20;80.10;;;;;;5098891;28;20027;-90
2021/07/06 05:04:54;;;;;;;7.65;6.88;;;25.20;80.30;;;;;;5098765;28;20051;-90
2021/07/06 05:07:20;;;;;;;8.00;7.25;;;25.20;80.20;;;;;;5099063;28;20085;-90
2021/07/06 05:09:46;;;;;;;7.93;7.22;;;25.00;80.30;;;;;;5099112;28;20526;-90
2021/07/06 05:12:12;;;;;;;7.45;6.75;;;24.90;80.80;;;;;;5099125;28;20062;-90
2021/07/06 05:14:37;;;;;;;7.68;5.70;;;24.90;80.90;;;;;;5098550;28;20092;-90
2021/07/06 05:17:03;;;;;;;7.60;6.30;;;24.80;81.10;;;;;;5098945;28;20115;-89
2021/07/06 05:19:29;;;;;;;8.02;7.22;;;24.90;81.10;;;;;;5098664;28;20039;-90
2021/07/06 05:21:55;;;;;;;7.22;6.57;;;24.90;80.70;;;;;;5099826;28;20028;-90
2021/07/06 05:24:21;;;;;;;7.85;6.50;;;24.90;80.80;;;;;;5117224;28;20114;-90
2021/07/06 05:26:47;;;;;;;12.15;7.97;;;25.00;81.00;;;;;;5099455;28;20066;-90
2021/07/06 05:29:12;;;;;;;8.45;7.65;;;25.10;80.90;;;;;;5099336;28;20100;-90
2021/07/06 05:31:38;;;;;;;6.80;6.15;;;25.10;80.50;;;;;;5101768;28;20404;-90
2021/07/06 05:34:04;;;;;;;7.85;7.10;;;25.10;80.60;;;;;;5104228;28;20035;-90
2021/07/06 05:36:30;;;;;;;7.47;6.72;;;25.20;80.30;;;;;;5105000;28;20122;-90
2021/07/06 05:38:56;;;;;;;7.90;6.47;;;25.30;80.40;;;;;;5104736;28;20031;-91
2021/07/06 05:44:04;;;;;;;7.50;6.80;;;25.60;79.60;;;;;;5100915;27;20425;-91
2021/07/06 05:46:30;;;;;;;8.02;6.40;;;25.70;79.20;;;;;;5096862;28;20032;-90
2021/07/06 05:48:56;;;;;;;7.82;7.00;;;26.00;78.90;;;;;;5097994;28;20021;-90
2021/07/06 05:51:22;;;;;;;9.05;8.25;;;26.20;78.10;;;;;;5101837;28;20032;-90
2021/07/06 05:53:49;;;;;;;8.57;7.75;;;26.30;77.30;;;;;;5103553;28;20028;-90
2021/07/06 05:56:17;;;;;;;7.60;6.90;;;26.20;77.20;;;;;;5091724;28;20049;-91
2021/07/06 05:58:43;;;;;;;8.43;7.38;;;26.30;77.50;;;;;;5096823;28;20024;-89
2021/07/06 06:01:08;;;;;;;10.70;9.68;;;26.30;77.00;;;;;;5101786;28;20035;-91
2021/07/06 06:03:34;;;;;;;9.90;8.80;;;26.10;76.40;;;;;;5086054;28;20474;-91
2021/07/06 06:06:01;;;;;;;10.63;9.57;;;25.90;77.10;;;;;;5083880;28;20047;-92
2021/07/06 06:08:27;;;;;;;12.18;10.32;;;25.70;77.70;;;;;;5091444;28;20051;-90
2021/07/06 06:10:53;;;;;;;10.20;8.63;;;25.50;78.20;;;;;;5092631;28;20032;-91
2021/07/06 06:13:20;;;;;;;11.00;9.60;;;25.40;78.80;;;;;;5088711;28;20040;-94
2021/07/06 06:15:46;;;;;;;11.70;9.10;;;25.40;79.10;;;;;;5078612;28;20044;-94
2021/07/06 06:18:22;;;;;;;10.20;9.27;;;25.50;79.40;;;;;;5096995;28;20030;-95
2021/07/06 06:20:48;;;;;;;10.43;9.43;;;25.60;79.10;;;;;;5092464;28;20043;-94
2021/07/06 06:23:14;;;;;;;10.90;9.90;;;25.70;79.00;;;;;;5090589;28;20490;-94
2021/07/06 06:25:41;;;;;;;10.88;9.77;;;25.70;78.70;;;;;;5093736;28;20099;-95
2021/07/06 06:28:07;;;;;;;9.57;8.35;;;25.70;78.60;;;;;;5093401;28;20021;-95
2021/07/06 06:30:33;;;;;;;10.90;7.53;;;25.70;78.70;;;;;;5093427;28;20028;-94
2021/07/06 06:33:00;;;;;;;8.57;7.45;;;25.90;78.60;;;;;;5092948;28;20462;-95
2021/07/06 06:35:26;;;;;;;7.40;6.70;;;26.10;78.30;;;;;;5091752;28;20020;-92
2021/07/06 06:37:52;;;;;;;8.70;7.82;;;26.30;77.80;;;;;;5089222;28;20146;-92
2021/07/06 06:40:18;;;;;;;10.25;8.80;;;26.30;77.10;;;;;;5090199;28;20111;-91
2021/07/06 06:42:43;;;;;;;7.65;6.95;;;26.20;76.80;;;;;;5090444;28;20118;-91
2021/07/06 06:45:11;;;;;;;8.27;7.47;;;26.10;77.30;;;;;;5090436;28;20036;-91
2021/07/06 06:47:38;;;;;;;9.90;8.63;;;26.20;77.60;;;;;;5089617;28;20034;-91
2021/07/06 06:50:05;;;;;;;7.75;7.05;;;26.20;76.80;;;;;;5088938;28;20096;-92
2021/07/06 06:52:32;;;;;;;10.45;9.15;;;26.20;76.90;;;;;;5089709;28;20127;-91
2021/07/06 06:54:57;;;;;;;10.65;9.18;;;26.30;76.70;;;;;;5080693;28;20024;-93
2021/07/06 06:57:24;;;;;;;10.25;9.15;;;26.40;76.80;;;;;;5076933;28;20024;-92
2021/07/06 06:59:50;;;;;;;10.93;8.60;;;26.30;76.70;;;;;;5075952;28;20064;-92
2021/07/06 07:02:17;;;;;;;10.32;9.38;;;26.30;76.50;;;;;;5076123;28;20083;-92
2021/07/06 07:04:46;;;;;;;10.20;9.20;;;26.20;76.40;;;;;;5076470;28;20024;-92
2021/07/06 07:07:16;;;;;;;10.50;8.63;;;26.10;76.80;;;;;;5075980;28;20039;-92
2021/07/06 07:09:42;;;;;;;12.52;9.43;;;26.10;76.70;;;;;;5076177;28;20111;-92
2021/07/06 07:12:08;;;;;;;9.68;8.68;;;26.10;76.90;;;;;;5077083;28;20029;-92
2021/07/06 07:14:35;;;;;;;9.48;8.27;;;26.20;76.90;;;;;;5076187;28;20028;-92
2021/07/06 07:17:01;;;;;;;11.82;9.00;;;26.30;76.80;;;;;;5076246;28;20028;-92
2021/07/06 07:19:27;;;;;;;10.75;9.00;;;26.50;76.10;;;;;;5076296;28;20025;-93
2021/07/06 07:21:53;;;;;;;14.05;11.05;;;26.60;75.80;;;;;;5075846;28;20029;-93
2021/07/06 07:24:18;;;;;;;10.75;9.65;;;26.60;75.20;;;;;;5077204;28;20028;-94
2021/07/06 07:26:44;;;;;;;11.40;10.18;;;26.50;75.40;;;;;;5078147;28;20033;-94
2021/07/06 07:29:10;;;;;;;11.70;8.65;;;26.40;75.70;;;;;;5077922;28;20020;-94
2021/07/06 07:31:36;;;;;;;10.88;9.38;;;26.50;75.80;;;;;;5078495;28;20399;-94
2021/07/06 07:34:02;;;;;;;10.15;9.10;;;26.50;76.00;;;;;;5082369;28;20025;-93
2021/07/06 07:36:28;;;;;;;9.93;8.93;;;26.80;75.70;;;;;;5081301;28;20021;-94
2021/07/06 07:38:55;;;;;;;10.65;9.55;;;27.00;74.90;;;;;;5079862;28;20177;-90
2021/07/06 07:41:21;;;;;;;10.35;9.25;;;27.00;74.50;;;;;;5075590;28;20469;-90
2021/07/06 07:43:49;;;;;;;9.48;8.50;;;27.10;74.60;;;;;;5075949;28;20072;-90
2021/07/06 07:46:15;;;;;;;9.60;8.60;;;27.10;74.40;;;;;;5077461;28;20031;-90
2021/07/06 07:48:41;;;;;;;10.25;8.80;;;27.20;74.30;;;;;;5077817;28;20021;-91
2021/07/06 07:51:06;;;;;;;11.35;9.40;;;27.40;74.00;;;;;;5078733;28;20476;-91
2021/07/06 07:53:32;;;;;;;10.85;9.75;;;27.40;73.20;;;;;;5078523;28;20017;-91
2021/07/06 07:55:58;;;;;;;10.27;9.27;;;27.30;73.20;;;;;;5076745;28;20112;-92
2021/07/06 07:58:24;;;;;;;10.25;9.25;;;27.30;73.60;;;;;;5079283;28;20028;-91
2021/07/06 08:00:49;;;;;;;15.40;10.27;;;27.40;73.70;;;;;;5079262;28;20024;-90
2021/07/06 08:03:15;;;;;;;10.05;9.05;;;27.40;73.30;;;;;;5083719;28;20039;-91
2021/07/06 08:05:41;;;;;;;9.63;8.73;;;27.40;72.90;;;;;;5080946;28;20028;-90
2021/07/06 08:08:07;;;;;;;10.93;8.60;;;27.40;73.20;;;;;;5083921;28;20035;-91
2021/07/06 08:10:33;;;;;;;9.32;8.32;;;27.40;73.30;;;;;;5080012;28;20071;-91
2021/07/06 08:12:58;;;;;;;8.80;7.90;;;27.40;73.30;;;;;;5074730;28;20029;-91
2021/07/06 08:15:24;;;;;;;8.88;7.97;;;27.40;73.10;;;;;;5077412;28;20032;-91
2021/07/06 08:17:50;;;;;;;9.15;8.23;;;27.50;73.00;;;;;;5075035;28;20024;-91
2021/07/06 08:20:16;;;;;;;7.95;7.20;;;27.60;72.90;;;;;;5075308;28;20024;-90
2021/07/06 08:22:41;;;;;;;12.07;8.35;;;27.60;72.70;;;;;;5076371;28;20025;-90
2021/07/06 08:25:08;;;;;;;8.35;7.65;;;27.60;72.20;;;;;;5075818;28;20471;-91
2021/07/06 08:27:33;;;;;;;8.93;7.00;;;27.50;72.50;;;;;;5076093;28;20379;-91
2021/07/06 08:29:59;;;;;;;8.35;7.53;;;27.50;72.40;;;;;;5076452;28;20020;-91
2021/07/06 08:32:25;;;;;;;8.50;7.63;;;27.40;71.70;;;;;;5075260;28;20025;-92
2021/07/06 08:34:51;;;;;;;9.63;7.60;;;27.40;71.60;;;;;;5075241;28;20062;-91
2021/07/06 08:37:16;;;;;;;7.25;6.55;;;27.40;71.70;;;;;;5075379;28;20115;-92
2021/07/06 08:39:42;;;;;;;9.73;7.82;;;27.50;71.30;;;;;;5074750;28;20383;-91
2021/07/06 08:42:08;;;;;;;10.20;6.63;;;27.50;71.10;;;;;;5075482;28;20033;-92
2021/07/06 08:44:36;;;;;;;6.60;6.00;;;27.60;71.10;;;;;;5074935;28;20029;-91
2021/07/06 08:47:04;;;;;;;9.98;6.07;;;27.80;70.50;;;;;;5074464;28;20486;-92
2021/07/06 08:49:32;;;;;;;8.15;6.38;;;27.90;69.90;;;;;;5073386;28;20028;-93
2021/07/06 08:51:59;;;;;;;7.32;6.25;;;27.90;69.50;;;;;;5074641;28;20471;-92
2021/07/06 08:54:27;;;;;;;6.55;5.82;;;27.80;69.60;;;;;;5068480;28;20067;-91
2021/07/06 08:56:53;;;;;;;6.32;5.68;;;27.90;69.70;;;;;;5066158;28;20432;-92
2021/07/06 08:59:20;;;;;;;5.70;5.18;;;27.90;69.00;;;;;;5066145;28;20037;-92
2021/07/06 09:01:46;;;;;;;6.78;5.57;;;28.10;69.00;;;;;;5060946;28;20031;-91
2021/07/06 09:04:12;;;;;;;7.05;6.03;;;28.20;68.60;;;;;;5060164;28;20407;-90
2021/07/06 09:06:57;;;;;;;6.13;5.53;;;28.30;68.20;;;;;;5067453;28;20017;-91
2021/07/06 09:09:28;;;;;;;7.03;5.88;;;28.30;67.80;;;;;;5091806;28;20024;-91
2021/07/06 09:11:56;;;;;;;6.13;5.20;;;28.30;67.60;;;;;;5095144;28;20028;-91
2021/07/06 09:14:33;;;;;;;6.43;5.80;;;28.30;67.50;;;;;;5094550;28;20032;-90
2021/07/06 09:17:17;;;;;;;7.85;6.13;;;28.30;67.50;;;;;;5076476;28;20033;-91
2021/07/06 09:19:49;;;;;;;6.65;5.95;;;28.30;67.40;;;;;;5075479;28;20530;-90
2021/07/06 09:22:25;;;;;;;6.57;5.75;;;28.30;67.20;;;;;;5074185;28;20032;-91
2021/07/06 09:25:02;;;;;;;10.85;5.78;;;28.30;67.10;;;;;;5077164;28;20127;-91
2021/07/06 09:27:36;;;;;;;6.47;5.88;;;28.10;67.00;;;;;;5074262;28;20016;-90
2021/07/06 09:30:13;;;;;;;6.20;5.43;;;28.00;67.80;;;;;;5061172;28;20029;-90
2021/07/06 09:32:50;;;;;;;7.78;5.75;;;28.10;68.00;;;;;;5052910;28;20032;-90
2021/07/06 09:35:27;;;;;;;7.15;5.38;;;28.20;67.50;;;;;;5057375;28;20032;-90
2021/07/06 09:37:58;;;;;;;5.82;5.28;;;28.30;67.20;;;;;;5076847;28;20536;-91
2021/07/06 09:40:51;;;;;;;7.40;5.10;;;28.30;67.30;;;;;;5074043;28;20039;-91
2021/07/06 09:43:25;;;;;;;6.25;5.25;;;28.40;67.40;;;;;;5072796;28;20056;-91
2021/07/06 09:46:05;;;;;;;5.80;4.82;;;28.50;67.20;;;;;;5073654;28;20486;-90
2021/07/06 09:48:32;;;;;;;6.10;5.30;;;28.60;67.10;;;;;;5073136;28;20029;-91
2021/07/06 09:51:23;;;;;;;9.25;5.15;;;28.70;67.10;;;;;;5073065;28;20040;-91
2021/07/06 09:53:54;;;;;;;7.78;4.82;;;28.80;66.90;;;;;;5073433;28;20050;-91
2021/07/06 09:56:26;;;;;;;6.28;4.72;;;29.00;66.60;;;;;;5071446;28;20024;-90
2021/07/06 09:59:06;;;;;;;6.05;5.20;;;29.20;65.80;;;;;;5072651;28;20033;-91
2021/07/06 10:01:32;;;;;;;5.55;5.05;;;29.30;65.10;;;;;;5072788;28;20419;-90
2021/07/06 10:03:58;;;;;;;5.43;4.60;;;29.30;65.40;;;;;;5076620;28;20036;-90
2021/07/06 10:06:26;;;;;;;5.20;4.57;;;29.20;65.20;;;;;;5074691;28;20033;-91
2021/07/06 10:08:59;;;;;;;5.88;4.95;;;29.30;65.40;;;;;;5060475;28;20033;-90
2021/07/06 10:11:25;;;;;;;;;;;29.30;65.20;;;;;;5076215;28;20032;-91
2021/07/06 10:13:51;;;;;;;6.53;4.25;;;29.30;64.10;;;;;;5074832;28;19912;-93
2021/07/06 10:16:19;;;;;;;5.43;4.82;;;29.40;65.00;;;;;;5073902;28;20158;-94
2021/07/06 10:18:49;;;;;;;5.00;4.50;;;29.40;64.90;;;;;;5049751;28;20029;-91
2021/07/06 10:21:15;;;;;;;4.80;4.35;;;29.50;65.10;;;;;;5057908;28;20084;-90
2021/07/06 10:23:43;;;;;;;5.45;4.95;;;29.70;64.70;;;;;;5061092;28;20134;-94
2021/07/06 10:26:13;;;;;;;4.78;3.95;;;29.80;63.90;;;;;;5058935;28;20039;-90
2021/07/06 10:28:39;;;;;;;3.90;3.40;;;29.90;63.30;;;;;;5053502;28;20029;-90
2021/07/06 10:31:17;;;;;;;3.75;3.35;;;29.90;62.80;;;;;;5062520;28;20159;-87
2021/07/06 10:33:45;;;;;;;4.20;3.80;;;30.00;62.20;;;;;;5062589;28;20025;-88
2021/07/06 10:36:12;;;;;;;6.43;3.60;;;30.00;61.60;;;;;;5049652;28;20035;-87
2021/07/06 10:38:53;;;;;;;7.32;3.40;;;29.90;61.00;;;;;;5065984;28;20078;-85
2021/07/06 10:41:42;;;;;;;3.17;2.83;;;29.90;61.60;;;;;;5058698;28;20382;-86
2021/07/06 10:44:09;;;;;;;3.45;3.13;;;29.90;61.60;;;;;;5057449;28;20483;-88
2021/07/06 10:46:38;;;;;;;4.25;3.38;;;30.00;61.40;;;;;;5064456;28;20025;-85
2021/07/06 10:49:26;;;;;;;4.85;3.75;;;30.20;60.40;;;;;;5061415;28;20028;-86
2021/07/06 10:51:54;;;;;;;3.65;3.35;;;30.30;60.30;;;;;;5063196;28;20036;-86
2021/07/06 10:54:42;;;;;;;4.53;3.67;;;30.30;60.20;;;;;;5065351;28;20463;-87
2021/07/06 10:57:10;;;;;;;4.18;3.72;;;30.40;59.30;;;;;;5062641;28;20029;-86
2021/07/06 10:59:36;;;;;;;4.13;3.60;;;30.20;59.40;;;;;;5061462;28;20021;-87
2021/07/06 11:02:11;;;;;;;4.45;4.05;;;30.30;60.00;;;;;;5060911;28;20046;-86
2021/07/06 11:04:46;;;;;;;3.50;3.22;;;30.30;59.90;;;;;;5059121;28;20033;-88
2021/07/06 11:07:37;;;;;;;3.92;3.30;;;30.40;60.20;;;;;;5060237;28;20049;-87
2021/07/06 11:10:06;;;;;;;3.90;3.28;;;30.50;59.50;;;;;;5068348;28;20348;-88
2021/07/06 11:12:37;;;;;;;3.75;3.45;;;30.60;59.20;;;;;;5062586;28;20101;-88
2021/07/06 11:15:13;;;;;;;3.75;3.45;;;30.60;59.00;;;;;;5062525;28;20032;-85
2021/07/06 11:17:42;;;;;;;3.35;3.05;;;30.50;58.80;;;;;;5061627;28;20475;-86
2021/07/06 11:20:16;;;;;;;7.03;3.50;;;30.40;59.00;;;;;;5064266;28;20445;-85
2021/07/06 11:23:03;;;;;;;3.85;3.47;;;30.40;59.30;;;;;;5062955;28;20348;-87
2021/07/06 11:25:35;;;;;;;4.80;3.63;;;30.40;59.30;;;;;;5063691;28;20047;-86
2021/07/06 11:28:18;;;;;;;3.63;3.20;;;30.50;59.30;;;;;;5063497;28;20029;-86
2021/07/06 11:30:45;;;;;;;4.53;3.40;;;30.60;58.10;;;;;;5064808;28;20036;-87
2021/07/06 11:33:18;;;;;;;6.65;3.72;;;30.60;58.80;;;;;;5061580;28;20471;-86
2021/07/06 11:36:02;;;;;;;3.43;2.97;;;30.70;58.30;;;;;;5061847;28;20135;-86
2021/07/06 11:38:30;;;;;;;4.40;3.55;;;30.90;58.50;;;;;;5064069;28;20035;-85
2021/07/06 11:41:03;;;;;;;4.20;3.38;;;31.00;58.60;;;;;;5067504;28;20028;-85
2021/07/06 11:43:34;;;;;;;3.78;3.38;;;31.10;58.20;;;;;;5059195;28;20060;-88
2021/07/06 11:46:05;;;;;;;3.60;3.30;;;31.10;57.60;;;;;;5068368;28;20058;-86
2021/07/06 11:48:36;;;;;;;4.28;3.80;;;31.00;58.00;;;;;;5070134;28;20024;-88
2021/07/06 11:51:05;;;;;;;4.85;3.22;;;31.00;57.30;;;;;;5064945;28;20064;-89
2021/07/06 11:53:37;;;;;;;3.50;3.10;;;31.10;57.70;;;;;;5066174;28;20020;-86
2021/07/06 11:56:04;;;;;;;3.67;3.28;;;31.10;57.70;;;;;;5063437;28;20021;-87
2021/07/06 11:58:32;;;;;;;3.72;3.35;;;31.00;57.30;;;;;;5063246;28;20025;-87
2021/07/06 12:00:59;;;;;;;4.03;3.63;;;30.70;57.10;;;;;;5063482;28;20117;-88
2021/07/06 12:03:28;;;;;;;5.13;3.28;;;30.60;57.70;;;;;;5075855;28;20075;-87
2021/07/06 12:06:06;;;;;;;3.83;3.22;;;30.70;58.40;;;;;;5067104;28;20060;-87
2021/07/06 12:08:36;;;;;;;3.83;3.35;;;30.90;58.30;;;;;;5073114;28;20032;-89
2021/07/06 12:11:12;;;;;;;4.05;3.67;;;31.10;57.90;;;;;;5067707;28;20545;-88
2021/07/06 12:13:55;;;;;;;3.83;3.42;;;31.10;57.80;;;;;;5070345;28;20458;-89
2021/07/06 12:16:22;;;;;;;3.53;3.22;;;31.20;57.80;;;;;;5060974;28;20055;-89
2021/07/06 12:18:58;;;;;;;3.42;3.13;;;31.30;57.40;;;;;;5073399;28;20029;-88
2021/07/06 12:21:28;;;;;;;3.85;3.45;;;31.30;57.10;;;;;;5062554;28;20081;-87
2021/07/06 12:23:56;;;;;;;3.90;3.28;;;31.40;57.90;;;;;;5056880;28;20116;-88
2021/07/06 12:26:29;;;;;;;4.07;3.30;;;31.70;57.70;;;;;;5060718;28;20396;-88
2021/07/06 12:28:57;;;;;;;6.47;3.50;;;32.30;57.00;;;;;;5060014;28;20451;-87
2021/07/06 12:31:30;;;;;;;5.63;3.53;;;32.60;56.00;;;;;;5064279;28;20059;-88
2021/07/06 12:34:11;;;;;;;3.95;3.47;;;32.80;54.60;;;;;;5053245;28;20176;-88
2021/07/06 12:36:56;;;;;;;3.70;3.40;;;33.00;54.40;;;;;;5071359;28;20028;-88
2021/07/06 12:39:24;;;;;;;3.28;2.95;;;33.30;53.00;;;;;;5065596;28;20506;-87
2021/07/06 12:41:54;;;;;;;3.60;3.30;;;33.40;53.50;;;;;;5057304;28;20032;-86
2021/07/06 12:44:33;;;;;;;3.38;3.08;;;33.40;52.80;;;;;;5058166;28;20415;-87
2021/07/06 12:47:30;;;;;;;;;;;;;;;;;;;;;
2021/07/06 12:49:58;;;;;;;3.35;3.05;;;32.80;52.70;;;;;;5061332;28;20046;-91
2021/07/06 12:52:32;;;;;;;3.55;3.25;;;32.80;54.00;;;;;;5063105;28;20094;-87
2021/07/06 12:55:11;;;;;;;6.85;3.30;;;33.10;53.90;;;;;;5052565;28;20443;-88